AUA250 EDDK-LOWW
Flight info
| Callsign | AUA250 |
|---|---|
| Flight time | 1h 12m |
| Altitude | 37000 |
| Route | KUMIK1R KUMIK L603 TESGA DCT ESATI DCT BARSU DCT EKSOS DCT LULAR DCT RUDAP DCT BUDEX BUDEX2W |
| Aircraft | A320/M-SDE3FGHIRWY/LB1 |
Departure
| Time | 2026-04-25 20:27 |
|---|---|
| Airport | Cologne Bonn Airport (EDDK) |
Arrival
| Time | 2026-04-25 21:40 |
|---|---|
| Airport | Vienna International Airport (LOWW) |
| Time | Latitude | Longitude | Altitude | Speed | Heading |
|---|---|---|---|---|---|
| 2026-04-25 19:14 | 50.87734 | 7.12389 | 236 ft | 0 kts | 288° |
| 2026-04-25 20:06 | 50.87732 | 7.12400 | 233 ft | 4 kts | 288° |
| 2026-04-25 20:06 | 50.87723 | 7.12440 | 233 ft | 4 kts | 287° |
| 2026-04-25 20:07 | 50.87718 | 7.12481 | 235 ft | 4 kts | 271° |
| 2026-04-25 20:07 | 50.87722 | 7.12520 | 234 ft | 4 kts | 228° |
| 2026-04-25 20:07 | 50.87731 | 7.12532 | 232 ft | 0 kts | 198° |
| 2026-04-25 20:11 | 50.87707 | 7.12519 | 232 ft | 11 kts | 198° |
| 2026-04-25 20:11 | 50.87648 | 7.12489 | 233 ft | 7 kts | 198° |
| 2026-04-25 20:11 | 50.87604 | 7.12466 | 233 ft | 6 kts | 198° |
| 2026-04-25 20:11 | 50.87567 | 7.12447 | 232 ft | 5 kts | 198° |
| 2026-04-25 20:12 | 50.87534 | 7.12430 | 232 ft | 7 kts | 198° |
| 2026-04-25 20:12 | 50.87474 | 7.12399 | 233 ft | 10 kts | 198° |
| 2026-04-25 20:12 | 50.87412 | 7.12367 | 234 ft | 9 kts | 198° |
| 2026-04-25 20:12 | 50.87393 | 7.12358 | 232 ft | 8 kts | 198° |
| 2026-04-25 20:13 | 50.87303 | 7.12313 | 232 ft | 9 kts | 197° |
| 2026-04-25 20:13 | 50.87240 | 7.12284 | 232 ft | 10 kts | 196° |
| 2026-04-25 20:13 | 50.87175 | 7.12314 | 232 ft | 11 kts | 146° |
| 2026-04-25 20:13 | 50.87114 | 7.12396 | 232 ft | 12 kts | 136° |
| 2026-04-25 20:14 | 50.87048 | 7.12491 | 233 ft | 13 kts | 139° |
| 2026-04-25 20:14 | 50.86990 | 7.12573 | 235 ft | 10 kts | 136° |
| 2026-04-25 20:14 | 50.86950 | 7.12634 | 236 ft | 7 kts | 136° |
| 2026-04-25 20:14 | 50.86924 | 7.12672 | 237 ft | 4 kts | 136° |
| 2026-04-25 20:15 | 50.86909 | 7.12694 | 237 ft | 3 kts | 138° |
| 2026-04-25 20:15 | 50.86887 | 7.12725 | 238 ft | 7 kts | 137° |
| 2026-04-25 20:15 | 50.86831 | 7.12805 | 239 ft | 14 kts | 137° |
| 2026-04-25 20:15 | 50.86744 | 7.12932 | 242 ft | 19 kts | 138° |
| 2026-04-25 20:16 | 50.86650 | 7.13067 | 245 ft | 20 kts | 137° |
| 2026-04-25 20:16 | 50.86540 | 7.13224 | 249 ft | 22 kts | 138° |
| 2026-04-25 20:16 | 50.86467 | 7.13328 | 250 ft | 0 kts | 139° |
| 2026-04-25 20:16 | 50.86467 | 7.13339 | 250 ft | 3 kts | 89° |
| 2026-04-25 20:17 | 50.86510 | 7.13377 | 249 ft | 9 kts | 42° |
| 2026-04-25 20:17 | 50.86537 | 7.13481 | 249 ft | 12 kts | 65° |
| 2026-04-25 20:17 | 50.86577 | 7.13616 | 249 ft | 15 kts | 64° |
| 2026-04-25 20:17 | 50.86625 | 7.13775 | 251 ft | 15 kts | 64° |
| 2026-04-25 20:18 | 50.86670 | 7.13922 | 254 ft | 14 kts | 64° |
| 2026-04-25 20:18 | 50.86712 | 7.14060 | 255 ft | 13 kts | 64° |
| 2026-04-25 20:18 | 50.86722 | 7.14142 | 256 ft | 2 kts | 107° |
| 2026-04-25 20:18 | 50.86721 | 7.14145 | 256 ft | 0 kts | 109° |
| 2026-04-25 20:19 | 50.86715 | 7.14160 | 257 ft | 3 kts | 126° |
| 2026-04-25 20:19 | 50.86694 | 7.14193 | 258 ft | 5 kts | 137° |
| 2026-04-25 20:19 | 50.86660 | 7.14240 | 260 ft | 8 kts | 138° |
| 2026-04-25 20:19 | 50.86608 | 7.14316 | 261 ft | 13 kts | 136° |
| 2026-04-25 20:20 | 50.86530 | 7.14430 | 264 ft | 17 kts | 138° |
| 2026-04-25 20:20 | 50.86439 | 7.14561 | 270 ft | 19 kts | 137° |
| 2026-04-25 20:20 | 50.86337 | 7.14708 | 276 ft | 21 kts | 137° |
| 2026-04-25 20:20 | 50.86226 | 7.14872 | 282 ft | 23 kts | 137° |
| 2026-04-25 20:21 | 50.86105 | 7.15049 | 287 ft | 22 kts | 138° |
| 2026-04-25 20:21 | 50.85989 | 7.15213 | 291 ft | 24 kts | 136° |
| 2026-04-25 20:21 | 50.85872 | 7.15385 | 299 ft | 22 kts | 137° |
| 2026-04-25 20:21 | 50.85760 | 7.15548 | 299 ft | 22 kts | 137° |
| 2026-04-25 20:22 | 50.85650 | 7.15708 | 303 ft | 21 kts | 137° |
| 2026-04-25 20:22 | 50.85613 | 7.15762 | 304 ft | 21 kts | 137° |
| 2026-04-25 20:22 | 50.85460 | 7.15980 | 309 ft | 18 kts | 137° |
| 2026-04-25 20:22 | 50.85377 | 7.16102 | 308 ft | 14 kts | 134° |
| 2026-04-25 20:23 | 50.85335 | 7.16239 | 308 ft | 14 kts | 100° |
| 2026-04-25 20:23 | 50.85353 | 7.16388 | 308 ft | 11 kts | 54° |
| 2026-04-25 20:23 | 50.85370 | 7.16424 | 308 ft | 0 kts | 53° |
| 2026-04-25 20:26 | 50.85372 | 7.16428 | 309 ft | 3 kts | 53° |
| 2026-04-25 20:26 | 50.85418 | 7.16497 | 308 ft | 15 kts | 28° |
| 2026-04-25 20:26 | 50.85524 | 7.16518 | 309 ft | 14 kts | 352° |
| 2026-04-25 20:26 | 50.85600 | 7.16455 | 311 ft | 10 kts | 317° |
| 2026-04-25 20:27 | 50.85707 | 7.16299 | 308 ft | 49 kts | 318° |
| 2026-04-25 20:27 | 50.86147 | 7.15664 | 293 ft | 119 kts | 317° |
| 2026-04-25 20:27 | 50.86900 | 7.14577 | 301 ft | 168 kts | 319° |
| 2026-04-25 20:27 | 50.87727 | 7.13388 | 1015 ft | 160 kts | 318° |
| 2026-04-25 20:28 | 50.88554 | 7.12175 | 1631 ft | 169 kts | 318° |
| 2026-04-25 20:28 | 50.89591 | 7.11128 | 2079 ft | 188 kts | 345° |
| 2026-04-25 20:28 | 50.90926 | 7.11401 | 2578 ft | 205 kts | 21° |
| 2026-04-25 20:28 | 50.92220 | 7.12416 | 3412 ft | 209 kts | 24° |
| 2026-04-25 20:29 | 50.93420 | 7.13751 | 4214 ft | 216 kts | 45° |
| 2026-04-25 20:29 | 50.94236 | 7.15898 | 4739 ft | 241 kts | 61° |
| 2026-04-25 20:29 | 50.94987 | 7.18411 | 5258 ft | 260 kts | 60° |
| 2026-04-25 20:29 | 50.95789 | 7.21026 | 6073 ft | 267 kts | 60° |
| 2026-04-25 20:30 | 50.96607 | 7.23663 | 6910 ft | 272 kts | 60° |
| 2026-04-25 20:30 | 50.97453 | 7.26377 | 7739 ft | 277 kts | 60° |
| 2026-04-25 20:30 | 50.98319 | 7.29130 | 8565 ft | 281 kts | 59° |
| 2026-04-25 20:30 | 50.99202 | 7.31926 | 9401 ft | 285 kts | 60° |
| 2026-04-25 20:31 | 51.00098 | 7.34765 | 10219 ft | 290 kts | 60° |
| 2026-04-25 20:31 | 51.00880 | 7.37847 | 10593 ft | 315 kts | 71° |
| 2026-04-25 20:31 | 51.01312 | 7.41398 | 10832 ft | 341 kts | 82° |
| 2026-04-25 20:31 | 51.01282 | 7.45303 | 11071 ft | 365 kts | 95° |
| 2026-04-25 20:32 | 51.00708 | 7.49287 | 11635 ft | 376 kts | 106° |
| 2026-04-25 20:32 | 50.99917 | 7.53281 | 12312 ft | 382 kts | 105° |
| 2026-04-25 20:32 | 50.99122 | 7.57333 | 12991 ft | 387 kts | 105° |
| 2026-04-25 20:32 | 50.98331 | 7.61379 | 13634 ft | 392 kts | 105° |
| 2026-04-25 20:33 | 50.97517 | 7.65544 | 14259 ft | 397 kts | 105° |
| 2026-04-25 20:33 | 50.96690 | 7.69748 | 14878 ft | 401 kts | 105° |
| 2026-04-25 20:33 | 50.95854 | 7.73980 | 15500 ft | 404 kts | 105° |
| 2026-04-25 20:33 | 50.95294 | 7.76808 | 15912 ft | 406 kts | 105° |
| 2026-04-25 20:34 | 50.93946 | 7.82451 | 16739 ft | 413 kts | 116° |
| 2026-04-25 20:34 | 50.92454 | 7.86358 | 17358 ft | 417 kts | 123° |
| 2026-04-25 20:34 | 50.90839 | 7.90200 | 17983 ft | 420 kts | 123° |
| 2026-04-25 20:34 | 50.89216 | 7.94065 | 18582 ft | 424 kts | 122° |
| 2026-04-25 20:35 | 50.87580 | 7.97969 | 19105 ft | 427 kts | 122° |
| 2026-04-25 20:35 | 50.85931 | 8.01905 | 19627 ft | 431 kts | 122° |
| 2026-04-25 20:35 | 50.84284 | 8.05832 | 20073 ft | 436 kts | 122° |
| 2026-04-25 20:35 | 50.82599 | 8.09852 | 20556 ft | 440 kts | 122° |
| 2026-04-25 20:36 | 50.80899 | 8.13906 | 21054 ft | 444 kts | 122° |
| 2026-04-25 20:36 | 50.79185 | 8.17984 | 21521 ft | 447 kts | 122° |
| 2026-04-25 20:36 | 50.77454 | 8.22083 | 21979 ft | 450 kts | 123° |
| 2026-04-25 20:36 | 50.75707 | 8.26203 | 22436 ft | 453 kts | 123° |
| 2026-04-25 20:37 | 50.73940 | 8.30362 | 22884 ft | 457 kts | 123° |
| 2026-04-25 20:37 | 50.72163 | 8.34534 | 23302 ft | 460 kts | 124° |
| 2026-04-25 20:37 | 50.70136 | 8.38456 | 23714 ft | 463 kts | 134° |
| 2026-04-25 20:37 | 50.67766 | 8.41802 | 24041 ft | 466 kts | 143° |
| 2026-04-25 20:38 | 50.65044 | 8.44583 | 24412 ft | 467 kts | 152° |
| 2026-04-25 20:38 | 50.62163 | 8.46993 | 24766 ft | 469 kts | 153° |
| 2026-04-25 20:38 | 50.59286 | 8.49412 | 25109 ft | 471 kts | 153° |
| 2026-04-25 20:38 | 50.56396 | 8.51854 | 25424 ft | 473 kts | 153° |
| 2026-04-25 20:39 | 50.53492 | 8.54310 | 25755 ft | 475 kts | 153° |
| 2026-04-25 20:39 | 50.50575 | 8.56774 | 26067 ft | 478 kts | 153° |
| 2026-04-25 20:39 | 50.47638 | 8.59248 | 26382 ft | 480 kts | 153° |
| 2026-04-25 20:39 | 50.46691 | 8.60066 | 26481 ft | 481 kts | 151° |
| 2026-04-25 20:40 | 50.42219 | 8.65288 | 26978 ft | 485 kts | 136° |
| 2026-04-25 20:40 | 50.39787 | 8.68982 | 27261 ft | 487 kts | 136° |
| 2026-04-25 20:40 | 50.37348 | 8.72688 | 27534 ft | 489 kts | 136° |
| 2026-04-25 20:40 | 50.34895 | 8.76397 | 27810 ft | 491 kts | 136° |
| 2026-04-25 20:41 | 50.32428 | 8.80108 | 28069 ft | 493 kts | 136° |
| 2026-04-25 20:41 | 50.29946 | 8.83829 | 28316 ft | 495 kts | 136° |
| 2026-04-25 20:41 | 50.27458 | 8.87553 | 28588 ft | 496 kts | 136° |
| 2026-04-25 20:41 | 50.25214 | 8.91636 | 28827 ft | 496 kts | 122° |
| 2026-04-25 20:42 | 50.23664 | 8.96420 | 29148 ft | 493 kts | 108° |
| 2026-04-25 20:42 | 50.22556 | 9.01479 | 29473 ft | 492 kts | 107° |
| 2026-04-25 20:42 | 50.21470 | 9.06539 | 29810 ft | 491 kts | 107° |
| 2026-04-25 20:42 | 50.20392 | 9.11582 | 30143 ft | 490 kts | 107° |
| 2026-04-25 20:43 | 50.19329 | 9.16560 | 30436 ft | 490 kts | 107° |
| 2026-04-25 20:43 | 50.18249 | 9.21596 | 30733 ft | 490 kts | 107° |
| 2026-04-25 20:43 | 50.17164 | 9.26636 | 30963 ft | 490 kts | 107° |
| 2026-04-25 20:43 | 50.16075 | 9.31677 | 31222 ft | 490 kts | 107° |
| 2026-04-25 20:44 | 50.14983 | 9.36709 | 31519 ft | 490 kts | 107° |
| 2026-04-25 20:44 | 50.13891 | 9.41731 | 31819 ft | 489 kts | 107° |
| 2026-04-25 20:44 | 50.12800 | 9.46732 | 32113 ft | 488 kts | 107° |
| 2026-04-25 20:44 | 50.11702 | 9.51741 | 32409 ft | 487 kts | 107° |
| 2026-04-25 20:45 | 50.10607 | 9.56715 | 32709 ft | 486 kts | 107° |
| 2026-04-25 20:45 | 50.09510 | 9.61688 | 32992 ft | 485 kts | 107° |
| 2026-04-25 20:45 | 50.08413 | 9.66655 | 33292 ft | 485 kts | 107° |
| 2026-04-25 20:45 | 50.07315 | 9.71623 | 33547 ft | 485 kts | 107° |
| 2026-04-25 20:46 | 50.06230 | 9.76522 | 33824 ft | 485 kts | 107° |
| 2026-04-25 20:46 | 50.05131 | 9.81480 | 34113 ft | 484 kts | 107° |
| 2026-04-25 20:46 | 50.04030 | 9.86431 | 34367 ft | 484 kts | 107° |
| 2026-04-25 20:46 | 50.02928 | 9.91371 | 34602 ft | 484 kts | 107° |
| 2026-04-25 20:47 | 50.01820 | 9.96309 | 34841 ft | 483 kts | 107° |
| 2026-04-25 20:47 | 50.00708 | 10.01242 | 35072 ft | 483 kts | 107° |
| 2026-04-25 20:47 | 49.99597 | 10.06171 | 35293 ft | 483 kts | 107° |
| 2026-04-25 20:47 | 49.98486 | 10.11099 | 35504 ft | 483 kts | 107° |
| 2026-04-25 20:48 | 49.97390 | 10.15961 | 35706 ft | 483 kts | 107° |
| 2026-04-25 20:48 | 49.96278 | 10.20883 | 35911 ft | 483 kts | 107° |
| 2026-04-25 20:48 | 49.95164 | 10.25800 | 36117 ft | 483 kts | 107° |
| 2026-04-25 20:48 | 49.94045 | 10.30713 | 36307 ft | 483 kts | 108° |
| 2026-04-25 20:49 | 49.92923 | 10.35621 | 36501 ft | 482 kts | 108° |
| 2026-04-25 20:49 | 49.91796 | 10.40512 | 36690 ft | 482 kts | 108° |
| 2026-04-25 20:49 | 49.90610 | 10.45383 | 36872 ft | 483 kts | 109° |
| 2026-04-25 20:49 | 49.89374 | 10.50224 | 37069 ft | 483 kts | 109° |
| 2026-04-25 20:50 | 49.87063 | 10.59957 | 37120 ft | 485 kts | 107° |
| 2026-04-25 20:50 | 49.84896 | 10.69840 | 37123 ft | 485 kts | 106° |
| 2026-04-25 20:51 | 49.82715 | 10.79728 | 37118 ft | 485 kts | 107° |
| 2026-04-25 20:51 | 49.80467 | 10.89582 | 37116 ft | 485 kts | 108° |
| 2026-04-25 20:52 | 49.78566 | 10.97755 | 37126 ft | 486 kts | 108° |
| 2026-04-25 20:52 | 49.75885 | 11.09257 | 37115 ft | 486 kts | 107° |
| 2026-04-25 20:53 | 49.73612 | 11.19036 | 37111 ft | 487 kts | 107° |
| 2026-04-25 20:53 | 49.71325 | 11.28875 | 37103 ft | 487 kts | 107° |
| 2026-04-25 20:54 | 49.69021 | 11.38720 | 37116 ft | 487 kts | 107° |
| 2026-04-25 20:54 | 49.66699 | 11.48557 | 37094 ft | 488 kts | 108° |
| 2026-04-25 20:55 | 49.64368 | 11.58382 | 37081 ft | 488 kts | 108° |
| 2026-04-25 20:55 | 49.62039 | 11.68154 | 37076 ft | 488 kts | 108° |
| 2026-04-25 20:56 | 49.59690 | 11.77988 | 37087 ft | 489 kts | 108° |
| 2026-04-25 20:56 | 49.57332 | 11.87815 | 37070 ft | 489 kts | 108° |
| 2026-04-25 20:57 | 49.54970 | 11.97625 | 37078 ft | 488 kts | 108° |
| 2026-04-25 20:57 | 49.52615 | 12.07347 | 37083 ft | 488 kts | 108° |
| 2026-04-25 20:58 | 49.50231 | 12.17133 | 37105 ft | 488 kts | 108° |
| 2026-04-25 20:58 | 49.47844 | 12.26918 | 37092 ft | 489 kts | 108° |
| 2026-04-25 20:59 | 49.45318 | 12.36635 | 37084 ft | 490 kts | 111° |
| 2026-04-25 20:59 | 49.42558 | 12.46144 | 37080 ft | 491 kts | 112° |
| 2026-04-25 21:00 | 49.40667 | 12.52521 | 37079 ft | 491 kts | 112° |
| 2026-04-25 21:01 | 49.35587 | 12.70043 | 37088 ft | 491 kts | 111° |
| 2026-04-25 21:01 | 49.32842 | 12.79626 | 37085 ft | 491 kts | 112° |
| 2026-04-25 21:02 | 49.30082 | 12.89180 | 37085 ft | 491 kts | 112° |
| 2026-04-25 21:02 | 49.27300 | 12.98724 | 37082 ft | 491 kts | 112° |
| 2026-04-25 21:03 | 49.24528 | 13.08192 | 37079 ft | 491 kts | 112° |
| 2026-04-25 21:03 | 49.21733 | 13.17715 | 37075 ft | 490 kts | 112° |
| 2026-04-25 21:04 | 49.18930 | 13.27220 | 37071 ft | 490 kts | 112° |
| 2026-04-25 21:04 | 49.16118 | 13.36703 | 37010 ft | 490 kts | 112° |
| 2026-04-25 21:04 | 49.14712 | 13.41432 | 36748 ft | 490 kts | 112° |
| 2026-04-25 21:05 | 49.13302 | 13.46169 | 36484 ft | 490 kts | 112° |
| 2026-04-25 21:05 | 49.11891 | 13.50902 | 36220 ft | 490 kts | 112° |
| 2026-04-25 21:05 | 49.10499 | 13.55566 | 35975 ft | 490 kts | 112° |
| 2026-04-25 21:05 | 49.09083 | 13.60298 | 35731 ft | 490 kts | 112° |
| 2026-04-25 21:06 | 49.07663 | 13.65029 | 35478 ft | 491 kts | 112° |
| 2026-04-25 21:06 | 49.06242 | 13.69760 | 35224 ft | 491 kts | 112° |
| 2026-04-25 21:06 | 49.04822 | 13.74492 | 34980 ft | 491 kts | 112° |
| 2026-04-25 21:07 | 49.01979 | 13.83959 | 34498 ft | 491 kts | 113° |
| 2026-04-25 21:07 | 49.00549 | 13.88690 | 34245 ft | 492 kts | 113° |
| 2026-04-25 21:07 | 48.99116 | 13.93410 | 34026 ft | 492 kts | 113° |
| 2026-04-25 21:07 | 48.97677 | 13.98136 | 33744 ft | 492 kts | 113° |
| 2026-04-25 21:08 | 48.96253 | 14.02805 | 33464 ft | 493 kts | 113° |
| 2026-04-25 21:08 | 48.94809 | 14.07535 | 33196 ft | 493 kts | 113° |
| 2026-04-25 21:08 | 48.93365 | 14.12263 | 32930 ft | 494 kts | 113° |
| 2026-04-25 21:08 | 48.91918 | 14.16999 | 32669 ft | 494 kts | 113° |
| 2026-04-25 21:09 | 48.89016 | 14.26469 | 32161 ft | 495 kts | 113° |
| 2026-04-25 21:09 | 48.87552 | 14.31218 | 31899 ft | 495 kts | 114° |
| 2026-04-25 21:09 | 48.86090 | 14.35945 | 31630 ft | 496 kts | 114° |
| 2026-04-25 21:10 | 48.84642 | 14.40622 | 31383 ft | 496 kts | 114° |
| 2026-04-25 21:10 | 48.83174 | 14.45363 | 31111 ft | 496 kts | 114° |
| 2026-04-25 21:10 | 48.81706 | 14.50091 | 30860 ft | 495 kts | 114° |
| 2026-04-25 21:10 | 48.80238 | 14.54817 | 30612 ft | 495 kts | 114° |
| 2026-04-25 21:11 | 48.78770 | 14.59532 | 30384 ft | 495 kts | 114° |
| 2026-04-25 21:11 | 48.77296 | 14.64248 | 30133 ft | 495 kts | 114° |
| 2026-04-25 21:11 | 48.75820 | 14.68966 | 29858 ft | 495 kts | 114° |
| 2026-04-25 21:11 | 48.74345 | 14.73676 | 29576 ft | 495 kts | 114° |
| 2026-04-25 21:12 | 48.72867 | 14.78396 | 29295 ft | 496 kts | 114° |
| 2026-04-25 21:12 | 48.71407 | 14.83053 | 28990 ft | 496 kts | 114° |
| 2026-04-25 21:12 | 48.69926 | 14.87759 | 27838 ft | 498 kts | 114° |
| 2026-04-25 21:12 | 48.69423 | 14.89354 | 27457 ft | 498 kts | 114° |
| 2026-04-25 21:13 | 48.66941 | 14.97205 | 25691 ft | 497 kts | 114° |
| 2026-04-25 21:13 | 48.65456 | 15.01878 | 24931 ft | 489 kts | 114° |
| 2026-04-25 21:13 | 48.63993 | 15.06477 | 24411 ft | 478 kts | 114° |
| 2026-04-25 21:13 | 48.62585 | 15.10899 | 24279 ft | 456 kts | 114° |
| 2026-04-25 21:14 | 48.61240 | 15.15118 | 24158 ft | 436 kts | 114° |
| 2026-04-25 21:14 | 48.60380 | 15.17817 | 24013 ft | 426 kts | 114° |
| 2026-04-25 21:14 | 48.58682 | 15.23131 | 23403 ft | 416 kts | 114° |
| 2026-04-25 21:14 | 48.57850 | 15.25730 | 23000 ft | 413 kts | 114° |
| 2026-04-25 21:15 | 48.56203 | 15.30868 | 22199 ft | 408 kts | 115° |
| 2026-04-25 21:15 | 48.54967 | 15.34712 | 21608 ft | 406 kts | 115° |
| 2026-04-25 21:15 | 48.53739 | 15.38530 | 21010 ft | 404 kts | 115° |
| 2026-04-25 21:15 | 48.52660 | 15.42415 | 20419 ft | 400 kts | 107° |
| 2026-04-25 21:16 | 48.51966 | 15.46448 | 19868 ft | 395 kts | 98° |
| 2026-04-25 21:16 | 48.51717 | 15.49157 | 19506 ft | 392 kts | 92° |
| 2026-04-25 21:16 | 48.51500 | 15.53241 | 18959 ft | 389 kts | 92° |
| 2026-04-25 21:16 | 48.51275 | 15.57298 | 18423 ft | 387 kts | 92° |
| 2026-04-25 21:17 | 48.51046 | 15.61287 | 18209 ft | 375 kts | 92° |
| 2026-04-25 21:17 | 48.50750 | 15.66341 | 17987 ft | 358 kts | 92° |
| 2026-04-25 21:17 | 48.50603 | 15.68844 | 17730 ft | 353 kts | 92° |
| 2026-04-25 21:17 | 48.50317 | 15.73714 | 17229 ft | 351 kts | 92° |
| 2026-04-25 21:18 | 48.50176 | 15.76187 | 16954 ft | 350 kts | 92° |
| 2026-04-25 21:18 | 48.49966 | 15.79842 | 16560 ft | 349 kts | 92° |
| 2026-04-25 21:18 | 48.49760 | 15.83432 | 16205 ft | 347 kts | 92° |
| 2026-04-25 21:18 | 48.49555 | 15.87053 | 15853 ft | 346 kts | 92° |
| 2026-04-25 21:19 | 48.49351 | 15.90654 | 15511 ft | 344 kts | 92° |
| 2026-04-25 21:19 | 48.49145 | 15.94238 | 15167 ft | 342 kts | 92° |
| 2026-04-25 21:19 | 48.48941 | 15.97798 | 14830 ft | 340 kts | 92° |
| 2026-04-25 21:19 | 48.48738 | 16.01345 | 14500 ft | 339 kts | 92° |
| 2026-04-25 21:20 | 48.48535 | 16.04877 | 14167 ft | 338 kts | 92° |
| 2026-04-25 21:20 | 48.48400 | 16.07210 | 14029 ft | 337 kts | 92° |
| 2026-04-25 21:20 | 48.48127 | 16.11908 | 13996 ft | 337 kts | 92° |
| 2026-04-25 21:20 | 48.47928 | 16.15379 | 13999 ft | 337 kts | 92° |
| 2026-04-25 21:21 | 48.47727 | 16.18900 | 13999 ft | 337 kts | 92° |
| 2026-04-25 21:21 | 48.47525 | 16.22423 | 13997 ft | 337 kts | 92° |
| 2026-04-25 21:21 | 48.47323 | 16.25939 | 13987 ft | 337 kts | 92° |
| 2026-04-25 21:21 | 48.47120 | 16.29441 | 13680 ft | 335 kts | 92° |
| 2026-04-25 21:22 | 48.46919 | 16.32927 | 13308 ft | 333 kts | 92° |
| 2026-04-25 21:22 | 48.46673 | 16.36388 | 12960 ft | 332 kts | 100° |
| 2026-04-25 21:22 | 48.45969 | 16.39697 | 12605 ft | 331 kts | 110° |
| 2026-04-25 21:22 | 48.44885 | 16.42726 | 12264 ft | 328 kts | 131° |
| 2026-04-25 21:23 | 48.43212 | 16.44927 | 11928 ft | 322 kts | 151° |
| 2026-04-25 21:23 | 48.41296 | 16.46651 | 11569 ft | 320 kts | 153° |
| 2026-04-25 21:23 | 48.39384 | 16.48348 | 11199 ft | 319 kts | 153° |
| 2026-04-25 21:23 | 48.37491 | 16.50035 | 11001 ft | 311 kts | 153° |
| 2026-04-25 21:24 | 48.35658 | 16.51660 | 10885 ft | 301 kts | 155° |
| 2026-04-25 21:24 | 48.33736 | 16.52545 | 10757 ft | 280 kts | 183° |
| 2026-04-25 21:24 | 48.31895 | 16.52141 | 10573 ft | 260 kts | 208° |
| 2026-04-25 21:24 | 48.30291 | 16.50999 | 10130 ft | 256 kts | 207° |
| 2026-04-25 21:25 | 48.28502 | 16.50764 | 9677 ft | 268 kts | 169° |
| 2026-04-25 21:25 | 48.26821 | 16.52017 | 9318 ft | 273 kts | 146° |
| 2026-04-25 21:25 | 48.25366 | 16.53857 | 8953 ft | 274 kts | 139° |
| 2026-04-25 21:25 | 48.23991 | 16.55829 | 8603 ft | 273 kts | 138° |
| 2026-04-25 21:26 | 48.22632 | 16.57737 | 8264 ft | 271 kts | 140° |
| 2026-04-25 21:26 | 48.21224 | 16.59600 | 7914 ft | 269 kts | 139° |
| 2026-04-25 21:26 | 48.19894 | 16.61570 | 7557 ft | 268 kts | 134° |
| 2026-04-25 21:26 | 48.18677 | 16.63684 | 7210 ft | 267 kts | 129° |
| 2026-04-25 21:27 | 48.17585 | 16.65930 | 6873 ft | 266 kts | 123° |
| 2026-04-25 21:27 | 48.16651 | 16.68313 | 6528 ft | 264 kts | 117° |
| 2026-04-25 21:27 | 48.15836 | 16.70773 | 6181 ft | 263 kts | 116° |
| 2026-04-25 21:27 | 48.15029 | 16.73214 | 5997 ft | 261 kts | 115° |
| 2026-04-25 21:28 | 48.14232 | 16.75624 | 6004 ft | 263 kts | 115° |
| 2026-04-25 21:28 | 48.13419 | 16.78077 | 5923 ft | 262 kts | 115° |
| 2026-04-25 21:28 | 48.12608 | 16.80517 | 5561 ft | 261 kts | 115° |
| 2026-04-25 21:28 | 48.11800 | 16.82944 | 5202 ft | 261 kts | 115° |
| 2026-04-25 21:29 | 48.10993 | 16.85368 | 4863 ft | 259 kts | 114° |
| 2026-04-25 21:29 | 48.10191 | 16.87780 | 4500 ft | 258 kts | 114° |
| 2026-04-25 21:29 | 48.09392 | 16.90179 | 4143 ft | 257 kts | 114° |
| 2026-04-25 21:29 | 48.08598 | 16.92568 | 3793 ft | 256 kts | 114° |
| 2026-04-25 21:30 | 48.07808 | 16.94945 | 3460 ft | 255 kts | 115° |
| 2026-04-25 21:30 | 48.07029 | 16.97282 | 3117 ft | 254 kts | 114° |
| 2026-04-25 21:30 | 48.06213 | 16.99651 | 2973 ft | 253 kts | 121° |
| 2026-04-25 21:30 | 48.05447 | 17.00952 | 2980 ft | 254 kts | 143° |
| 2026-04-25 21:31 | 48.03301 | 17.02061 | 2984 ft | 247 kts | 187° |
| 2026-04-25 21:31 | 48.01655 | 17.01528 | 2987 ft | 241 kts | 205° |
| 2026-04-25 21:31 | 48.00078 | 17.00687 | 2990 ft | 239 kts | 207° |
| 2026-04-25 21:31 | 47.98527 | 16.99805 | 2987 ft | 239 kts | 207° |
| 2026-04-25 21:32 | 47.97095 | 16.98656 | 2982 ft | 228 kts | 231° |
| 2026-04-25 21:32 | 47.96453 | 16.96743 | 2978 ft | 192 kts | 275° |
| 2026-04-25 21:32 | 47.96914 | 16.94999 | 2986 ft | 187 kts | 319° |
| 2026-04-25 21:32 | 47.98030 | 16.93947 | 2989 ft | 192 kts | 326° |
| 2026-04-25 21:33 | 47.99041 | 16.92711 | 2987 ft | 182 kts | 310° |
| 2026-04-25 21:33 | 47.99752 | 16.91204 | 2989 ft | 178 kts | 302° |
| 2026-04-25 21:33 | 48.00360 | 16.89576 | 2993 ft | 184 kts | 300° |
| 2026-04-25 21:33 | 48.00945 | 16.87873 | 2991 ft | 185 kts | 299° |
| 2026-04-25 21:34 | 48.01517 | 16.86157 | 3006 ft | 185 kts | 298° |
| 2026-04-25 21:34 | 48.02089 | 16.84431 | 3005 ft | 183 kts | 298° |
| 2026-04-25 21:34 | 48.02631 | 16.82784 | 2995 ft | 172 kts | 298° |
| 2026-04-25 21:34 | 48.03149 | 16.81212 | 2998 ft | 166 kts | 298° |
| 2026-04-25 21:35 | 48.03658 | 16.79670 | 3002 ft | 165 kts | 298° |
| 2026-04-25 21:35 | 48.04161 | 16.78140 | 3004 ft | 164 kts | 298° |
| 2026-04-25 21:35 | 48.04665 | 16.76610 | 3005 ft | 164 kts | 299° |
| 2026-04-25 21:35 | 48.05170 | 16.75075 | 2998 ft | 165 kts | 298° |
| 2026-04-25 21:36 | 48.05669 | 16.73555 | 2878 ft | 164 kts | 298° |
| 2026-04-25 21:36 | 48.06162 | 16.72051 | 2733 ft | 154 kts | 298° |
| 2026-04-25 21:36 | 48.06615 | 16.70670 | 2520 ft | 143 kts | 297° |
| 2026-04-25 21:36 | 48.07044 | 16.69362 | 2334 ft | 139 kts | 298° |
| 2026-04-25 21:37 | 48.07463 | 16.68083 | 2161 ft | 134 kts | 298° |
| 2026-04-25 21:37 | 48.07724 | 16.67285 | 2043 ft | 126 kts | 299° |
| 2026-04-25 21:37 | 48.08226 | 16.65752 | 1831 ft | 120 kts | 298° |
| 2026-04-25 21:37 | 48.08589 | 16.64645 | 1666 ft | 118 kts | 298° |
| 2026-04-25 21:38 | 48.08953 | 16.63531 | 1498 ft | 120 kts | 296° |
| 2026-04-25 21:38 | 48.09332 | 16.62376 | 1348 ft | 127 kts | 296° |
| 2026-04-25 21:38 | 48.09721 | 16.61186 | 1180 ft | 130 kts | 296° |
| 2026-04-25 21:38 | 48.10115 | 16.59980 | 1009 ft | 128 kts | 295° |
| 2026-04-25 21:39 | 48.10506 | 16.58784 | 831 ft | 128 kts | 295° |
| 2026-04-25 21:39 | 48.10898 | 16.57584 | 659 ft | 129 kts | 295° |
| 2026-04-25 21:39 | 48.11251 | 16.56501 | 624 ft | 93 kts | 295° |
| 2026-04-25 21:39 | 48.11470 | 16.55826 | 620 ft | 56 kts | 296° |
| 2026-04-25 21:40 | 48.11611 | 16.55420 | 614 ft | 27 kts | 314° |
| 2026-04-25 21:40 | 48.11742 | 16.55227 | 608 ft | 19 kts | 316° |
| 2026-04-25 21:40 | 48.11816 | 16.55151 | 611 ft | 7 kts | 342° |
| 2026-04-25 21:40 | 48.11826 | 16.55146 | 616 ft | 0 kts | 342° |
| 2026-04-25 21:41 | 48.11827 | 16.55145 | 615 ft | 1 kts | 342° |
| 2026-04-25 21:42 | 48.11872 | 16.55151 | 608 ft | 8 kts | 30° |
| 2026-04-25 21:42 | 48.11878 | 16.55220 | 611 ft | 7 kts | 110° |
| 2026-04-25 21:42 | 48.11862 | 16.55275 | 617 ft | 6 kts | 117° |
| 2026-04-25 21:42 | 48.11834 | 16.55357 | 617 ft | 9 kts | 117° |
| 2026-04-25 21:43 | 48.11806 | 16.55437 | 608 ft | 8 kts | 117° |
| 2026-04-25 21:43 | 48.11787 | 16.55494 | 618 ft | 4 kts | 116° |
| 2026-04-25 21:43 | 48.11754 | 16.55600 | 621 ft | 22 kts | 114° |
| 2026-04-25 21:43 | 48.11690 | 16.55800 | 617 ft | 20 kts | 117° |
| 2026-04-25 21:44 | 48.11635 | 16.55969 | 621 ft | 17 kts | 116° |
| 2026-04-25 21:44 | 48.11584 | 16.56126 | 621 ft | 17 kts | 116° |
| 2026-04-25 21:44 | 48.11484 | 16.56430 | 619 ft | 18 kts | 115° |
| 2026-04-25 21:45 | 48.11418 | 16.56635 | 622 ft | 24 kts | 115° |
| 2026-04-25 21:45 | 48.11367 | 16.56795 | 624 ft | 24 kts | 117° |
| 2026-04-25 21:45 | 48.11262 | 16.57110 | 624 ft | 27 kts | 116° |
| 2026-04-25 21:45 | 48.11231 | 16.57256 | 625 ft | 12 kts | 74° |
| 2026-04-25 21:46 | 48.11305 | 16.57324 | 625 ft | 13 kts | 26° |
| 2026-04-25 21:46 | 48.11387 | 16.57384 | 616 ft | 14 kts | 26° |
| 2026-04-25 21:46 | 48.11488 | 16.57457 | 608 ft | 18 kts | 20° |
| 2026-04-25 21:46 | 48.11587 | 16.57440 | 612 ft | 7 kts | 343° |
| 2026-04-25 21:47 | 48.11637 | 16.57418 | 616 ft | 8 kts | 344° |
| 2026-04-25 21:47 | 48.11664 | 16.57407 | 617 ft | 0 kts | 344° |
| 2026-04-25 21:47 | 48.11719 | 16.57383 | 620 ft | 15 kts | 344° |
| 2026-04-25 21:48 | 48.11821 | 16.57318 | 603 ft | 14 kts | 307° |
| 2026-04-25 21:48 | 48.11855 | 16.57195 | 602 ft | 13 kts | 277° |
| 2026-04-25 21:48 | 48.11871 | 16.57076 | 601 ft | 0 kts | 292° |
| 2026-04-25 21:48 | 48.11869 | 16.57072 | 601 ft | 1 kts | 268° |
| 2026-04-25 21:49 | 48.11856 | 16.57068 | 601 ft | 5 kts | 193° |
| 2026-04-25 21:49 | 48.11812 | 16.57043 | 602 ft | 1 kts | 211° |
| 2026-04-25 21:49 | 48.11810 | 16.57042 | 602 ft | 1 kts | 208° |
| 2026-04-25 21:49 | 48.11809 | 16.57041 | 602 ft | 0 kts | 208° |